Time;durP1;ratioP1;P1;durP2;ratioP2;P2;SDS_P1;SDS_P2;PMS_P1;PMS_P2;Temp;Humidity;BMP_temperature;BMP_pressure;BME280_temperature;BME280_humidity;BME280_pressure;Samples;Min_cycle;Max_cycle;Signal;HPM_P1;HPM_P2
2023/03/21 00:00:42;;;;;;;15.82;6.30;;;;;;;8.80;100.00;99814.06;5016649;28;20049;-91
2023/03/21 00:03:09;;;;;;;18.13;6.40;;;;;;;8.54;100.00;99792.56;5016747;28;20061;-91
2023/03/21 00:05:41;;;;;;;15.82;6.80;;;;;;;8.84;100.00;99815.59;5016558;28;20045;-91
2023/03/21 00:08:08;;;;;;;18.10;7.43;;;;;;;8.91;100.00;99822.25;5026780;28;20395;-90
2023/03/21 00:10:35;;;;;;;15.80;6.38;;;;;;;8.74;100.00;99796.88;5035957;28;20446;-90
2023/03/21 00:13:14;;;;;;;12.13;5.40;;;;;;;8.97;100.00;99817.66;5036552;28;20076;-89
2023/03/21 00:15:53;;;;;;;11.77;4.50;;;;;;;8.63;100.00;99765.22;5052139;28;20045;-90
2023/03/21 00:18:41;;;;;;;10.57;4.20;;;;;;;8.86;100.00;99785.06;5025992;28;20107;-90
2023/03/21 00:21:11;;;;;;;13.63;5.72;;;;;;;8.73;100.00;99781.31;5046188;28;20437;-91
2023/03/21 00:23:59;;;;;;;14.38;5.53;;;;;;;8.83;100.00;99761.69;5037031;28;20083;-90
2023/03/21 00:26:26;;;;;;;13.48;5.32;;;;;;;8.81;100.00;99758.31;5039008;28;20041;-90
2023/03/21 00:28:53;;;;;;;19.23;8.80;;;;;;;8.79;100.00;99743.66;5035317;28;20053;-90
2023/03/21 00:31:20;;;;;;;15.00;5.55;;;;;;;8.87;100.00;99757.19;5038876;28;20158;-89
2023/03/21 00:33:47;;;;;;;12.63;4.63;;;;;;;8.82;100.00;99746.97;5038963;28;20490;-91
2023/03/21 00:36:14;;;;;;;12.60;5.22;;;;;;;9.09;100.00;99762.25;5039869;28;20049;-92
2023/03/21 00:38:41;;;;;;;15.75;7.10;;;;;;;8.83;100.00;99713.88;5040560;28;20067;-92
2023/03/21 00:41:10;;;;;;;17.30;8.30;;;;;;;9.11;100.00;99756.03;5039842;28;20048;-91
2023/03/21 00:43:54;;;;;;;17.13;7.68;;;;;;;8.96;100.00;99737.63;5042018;28;20060;-92
2023/03/21 00:46:21;;;;;;;21.60;7.05;;;;;;;9.02;100.00;99746.03;5039557;28;20247;-91
2023/03/21 00:48:50;;;;;;;22.40;9.35;;;;;;;8.82;100.00;99733.91;5039505;28;20487;-90
2023/03/21 00:51:24;;;;;;;20.58;7.03;;;;;;;8.70;100.00;99706.63;5024907;28;20083;-91
2023/03/21 00:53:56;;;;;;;15.70;6.53;;;;;;;8.75;100.00;99695.97;5019599;28;20114;-91
2023/03/21 00:56:23;;;;;;;14.88;6.47;;;;;;;8.91;100.00;99701.31;5019424;28;20049;-90
2023/03/21 00:58:50;;;;;;;24.67;9.80;;;;;;;8.96;100.00;99714.13;5031351;28;20411;-91
2023/03/21 01:01:17;;;;;;;18.10;8.15;;;;;;;9.03;100.00;99713.78;5019569;28;20052;-90
2023/03/21 01:03:46;;;;;;;15.70;7.25;;;;;;;9.09;100.00;99712.66;5019625;28;20049;-91
2023/03/21 01:06:18;;;;;;;18.20;7.50;;;;;;;8.77;100.00;99643.72;5019467;28;20049;-92
2023/03/21 01:08:46;;;;;;;14.00;6.05;;;;;;;9.15;100.00;99701.06;5020734;28;20096;-92
2023/03/21 01:11:21;;;;;;;16.48;5.93;;;;;;;9.11;100.00;99701.19;5020526;28;20092;-91
2023/03/21 01:13:49;;;;;;;24.33;9.20;;;;;;;9.07;100.00;99693.59;5019417;28;20053;-91
2023/03/21 01:16:25;;;;;;;14.75;5.93;;;;;;;8.87;100.00;99657.97;5021094;28;20049;-91
2023/03/21 01:18:52;;;;;;;14.25;6.22;;;;;;;8.87;100.00;99657.97;5019771;28;20045;-91
2023/03/21 01:21:18;;;;;;;17.67;8.38;;;;;;;9.01;100.00;99659.94;5019690;28;20057;-91
2023/03/21 01:23:45;;;;;;;14.25;7.15;;;;;;;8.97;100.00;99654.03;5019816;28;20050;-92
2023/03/21 01:26:12;;;;;;;19.55;9.45;;;;;;;8.86;100.00;99633.66;5019191;28;20042;-91
2023/03/21 01:28:40;;;;;;;16.30;6.68;;;;;;;9.17;100.00;99662.66;5047614;28;20065;-91
2023/03/21 01:31:10;;;;;;;17.95;8.50;;;;;;;8.77;100.00;99607.16;5039361;28;20053;-91
2023/03/21 01:33:37;;;;;;;15.30;6.95;;;;;;;8.92;100.00;99641.22;5031261;28;20401;-90
2023/03/21 01:36:05;;;;;;;11.32;5.38;;;;;;;9.20;100.00;99659.91;5038482;28;20049;-90
2023/03/21 01:38:40;;;;;;;11.63;4.88;;;;;;;9.30;100.00;99656.75;5039478;28;20548;-90
2023/03/21 01:41:27;;;;;;;14.02;5.35;;;;;;;9.21;100.00;99638.94;5038364;28;20049;-90
2023/03/21 01:44:18;;;;;;;16.13;8.32;;;;;;;9.06;100.00;99619.63;5040585;28;20143;-90
2023/03/21 01:46:51;;;;;;;11.80;4.82;;;;;;;9.29;100.00;99641.16;5019424;28;20537;-89
2023/03/21 01:49:39;;;;;;;13.80;5.28;;;;;;;9.13;100.00;99607.94;5020583;28;20080;-90
2023/03/21 01:52:11;;;;;;;10.10;4.43;;;;;;;9.45;100.00;99639.47;5031610;28;20564;-91
2023/03/21 01:54:51;;;;;;;13.43;5.82;;;;;;;9.04;100.00;99579.69;5039776;28;20067;-91
2023/03/21 01:57:31;;;;;;;13.27;4.97;;;;;;;9.26;100.00;99595.16;5037812;28;20532;-91
2023/03/21 02:00:11;;;;;;;11.63;4.85;;;;;;;9.34;100.00;99596.53;5037761;28;20044;-91
2023/03/21 02:02:54;;;;;;;14.38;6.05;;;;;;;9.10;100.00;99591.59;5028421;28;20058;-91
2023/03/21 02:05:49;;;;;;;13.02;5.95;;;;;;;9.44;100.00;99614.28;5037733;28;20048;-91
2023/03/21 02:08:17;;;;;;;13.63;6.13;;;;;;;9.21;100.00;99591.91;5037583;28;20041;-90
2023/03/21 02:10:47;;;;;;;17.10;7.93;;;;;;;8.77;100.00;99536.69;5024188;28;20056;-90
2023/03/21 02:13:16;;;;;;;16.33;7.73;;;;;;;9.25;100.00;99595.22;5037489;28;20084;-90
2023/03/21 02:15:57;;;;;;;17.52;8.27;;;;;;;9.21;100.00;99598.91;5037404;28;20051;-91
2023/03/21 02:18:26;;;;;;;15.95;6.50;;;;;;;9.23;100.00;99595.28;5035946;28;20483;-91
2023/03/21 02:21:12;;;;;;;18.98;7.47;;;;;;;9.18;100.00;99589.47;5024222;28;20076;-92
2023/03/21 02:24:09;;;;;;;15.23;7.35;;;;;;;9.10;100.00;99583.75;5037586;28;20489;-91
2023/03/21 02:26:56;;;;;;;17.88;8.43;;;;;;;8.71;100.00;99512.59;5039324;28;20057;-91
2023/03/21 02:29:42;;;;;;;15.77;5.57;;;;;;;9.21;100.00;99578.88;5043381;28;20050;-90
2023/03/21 02:32:09;;;;;;;15.63;5.88;;;;;;;9.24;100.00;99568.28;5024434;28;20049;-91
2023/03/21 02:34:59;;;;;;;14.73;6.18;;;;;;;9.36;100.00;99566.78;5040282;28;20130;-91
2023/03/21 02:37:38;;;;;;;17.45;7.30;;;;;;;9.15;100.00;99560.03;5038284;28;20049;-91
2023/03/21 02:40:38;;;;;;;13.27;5.13;;;;;;;9.33;100.00;99559.13;5045470;28;20178;-92
2023/03/21 02:43:18;;;;;;;16.23;5.90;;;;;;;9.12;100.00;99520.09;5034433;28;20095;-91
2023/03/21 02:45:56;;;;;;;12.85;5.22;;;;;;;9.36;100.00;99553.72;5018442;28;20415;-91
2023/03/21 02:49:05;;;;;;;17.40;6.28;;;;;;;9.11;100.00;99518.41;5022448;28;20053;-91
2023/03/21 02:51:34;;;;;;;11.82;4.53;;;;;;;9.08;100.00;99492.47;5036248;28;20502;-91
2023/03/21 02:54:06;;;;;;;12.98;4.28;;;;;;;9.41;100.00;99540.44;5037456;28;20061;-91
2023/03/21 02:56:57;;;;;;;11.00;4.32;;;;;;;9.07;100.00;99498.59;5040532;28;20048;-90
2023/03/21 02:59:25;;;;;;;11.98;4.40;;;;;;;9.30;100.00;99523.53;5026908;28;20380;-91
2023/03/21 03:01:55;;;;;;;13.55;5.78;;;;;;;9.24;100.00;99523.88;5035282;28;20064;-90
2023/03/21 03:04:26;;;;;;;9.98;4.15;;;;;;;9.41;100.00;99525.59;5017162;28;20053;-91
2023/03/21 03:07:14;;;;;;;13.48;4.72;;;;;;;9.35;100.00;99517.22;5017489;28;20046;-90
2023/03/21 03:09:58;;;;;;;15.20;4.70;;;;;;;9.37;100.00;99513.63;5031527;28;20063;-90
2023/03/21 03:12:59;;;;;;;12.98;3.90;;;;;;;9.11;100.00;99474.00;5037229;28;20052;-92
2023/03/21 03:15:50;;;;;;;9.65;3.58;;;;;;;9.44;100.00;99499.31;5038113;28;20053;-91
2023/03/21 03:18:32;;;;;;;7.82;2.53;;;;;;;9.46;100.00;99497.47;5037436;28;20044;-92
2023/03/21 03:21:09;;;;;;;12.35;4.00;;;;;;;9.53;100.00;99487.53;5054427;28;20060;-91
2023/03/21 03:24:05;;;;;;;11.05;2.80;;;;;;;9.23;100.00;99427.31;5037154;28;20411;-92
2023/03/21 03:26:36;;;;;;;11.40;3.67;;;;;;;9.40;100.00;99471.66;5037444;28;20056;-91
2023/03/21 03:29:07;;;;;;;8.70;2.85;;;;;;;9.19;100.00;99421.41;5037305;28;20449;-91
2023/03/21 03:31:45;;;;;;;8.82;2.85;;;;;;;9.60;100.00;99475.81;5031488;28;20049;-92
2023/03/21 03:34:19;;;;;;;10.38;3.05;;;;;;;9.53;100.00;99471.03;5017542;28;20049;-91
2023/03/21 03:36:54;;;;;;;10.35;3.33;;;;;;;9.33;100.00;99446.81;5017974;28;20057;-91
2023/03/21 03:39:32;;;;;;;8.10;2.85;;;;;;;9.27;100.00;99436.66;5018638;28;20053;-91
2023/03/21 03:42:04;;;;;;;12.23;2.42;;;;;;;9.58;100.00;99468.97;5017772;28;20053;-92
2023/03/21 03:44:51;;;;;;;9.65;2.28;;;;;;;9.26;100.00;99429.72;5020451;28;20118;-91
2023/03/21 03:47:45;;;;;;;11.73;2.53;;;;;;;9.13;100.00;99393.00;5016705;28;20052;-91
2023/03/21 03:50:40;;;;;;;6.63;1.90;;;;;;;9.56;100.00;99450.78;5035317;28;20545;-90
2023/03/21 03:53:15;;;;;;;6.43;1.98;;;;;;;9.65;100.00;99449.44;5017039;28;20049;-91
2023/03/21 03:55:44;;;;;;;8.15;2.25;;;;;;;9.40;100.00;99456.00;5033831;28;20054;-91
2023/03/21 03:58:12;;;;;;;5.50;1.80;;;;;;;9.37;100.00;99409.13;5016623;28;20053;-91
2023/03/21 04:00:51;;;;;;;5.15;2.08;;;;;;;9.59;100.00;99441.94;5023628;28;20494;-91
2023/03/21 04:03:17;;;;;;;10.75;3.22;;;;;;;9.17;100.00;99364.94;5037386;28;20487;-91
2023/03/21 04:05:47;;;;;;;7.75;2.85;;;;;;;9.54;100.00;99433.50;5036785;28;20055;-91
2023/03/21 04:08:15;;;;;;;7.00;2.58;;;;;;;9.47;100.00;99412.06;5030272;28;20411;-93
2023/03/21 04:10:42;;;;;;;12.20;3.53;;;;;;;9.32;100.00;99387.63;5021670;28;20518;-91
2023/03/21 04:13:09;;;;;;;7.35;2.83;;;;;;;9.57;100.00;99405.44;5017709;28;20053;-90
2023/03/21 04:15:36;;;;;;;9.63;3.25;;;;;;;9.23;100.00;99354.19;5026738;28;20051;-91
2023/03/21 04:18:03;;;;;;;11.70;4.38;;;;;;;9.66;100.00;99412.75;5018732;28;20099;-90
2023/03/21 04:20:30;;;;;;;10.90;3.75;;;;;;;9.52;100.00;99378.69;5017756;28;20730;-91
2023/03/21 04:23:04;;;;;;;11.50;3.42;;;;;;;9.51;100.00;99374.41;5018553;28;20057;-91
2023/03/21 04:25:34;;;;;;;9.07;3.22;;;;;;;9.76;100.00;99386.13;5017564;28;20419;-92
2023/03/21 04:28:05;;;;;;;9.75;3.53;;;;;;;9.68;100.00;99381.31;5019398;28;20053;-92
2023/03/21 04:30:33;;;;;;;10.77;3.80;;;;;;;9.54;100.00;99382.06;5018051;28;20526;-92
2023/03/21 04:32:59;;;;;;;13.10;4.95;;;;;;;9.60;100.00;99383.53;5020531;28;20049;-91
2023/03/21 04:35:27;;;;;;;11.45;3.47;;;;;;;9.55;100.00;99365.47;5037879;28;20049;-91
2023/03/21 04:37:54;;;;;;;13.82;4.63;;;;;;;9.71;100.00;99389.00;5036449;28;20057;-91
2023/03/21 04:40:23;;;;;;;16.38;5.45;;;;;;;9.72;100.00;99385.47;5017508;28;20049;-92
2023/03/21 04:42:50;;;;;;;11.20;4.10;;;;;;;9.75;100.00;99392.28;5017878;28;20053;-91
2023/03/21 04:45:17;;;;;;;12.85;5.40;;;;;;;9.61;100.00;99340.78;5018591;28;20064;-92
2023/03/21 04:47:44;;;;;;;14.80;4.38;;;;;;;9.72;100.00;99376.75;5017987;28;20491;-92
2023/03/21 04:50:12;;;;;;;10.02;4.10;;;;;;;9.48;100.00;99324.94;5036828;28;20075;-91
2023/03/21 04:52:39;;;;;;;10.95;4.32;;;;;;;9.33;100.00;99313.59;5027154;28;20064;-91
2023/03/21 04:55:08;;;;;;;13.88;6.65;;;;;;;9.62;100.00;99363.38;5032386;28;20049;-91
2023/03/21 04:57:37;;;;;;;11.77;4.55;;;;;;;9.50;100.00;99323.91;5027128;28;20156;-92
2023/03/21 05:00:09;;;;;;;14.20;6.25;;;;;;;9.45;100.00;99315.47;5050098;28;20045;-92
2023/03/21 05:02:37;;;;;;;13.00;5.40;;;;;;;9.79;100.00;99349.34;5035031;28;20056;-90
2023/03/21 05:05:05;;;;;;;13.30;5.38;;;;;;;9.48;100.00;99307.47;5038446;28;20057;-92
2023/03/21 05:07:32;;;;;;;14.05;4.90;;;;;;;9.43;100.00;99290.38;5039744;28;20056;-91
2023/03/21 05:09:59;;;;;;;16.88;6.38;;;;;;;9.54;100.00;99326.38;5038449;28;20045;-93
2023/03/21 05:12:28;;;;;;;14.77;5.28;;;;;;;9.55;100.00;99315.00;5040816;28;20136;-93
2023/03/21 05:14:55;;;;;;;15.68;5.40;;;;;;;9.59;100.00;99298.22;5040265;28;20053;-92
2023/03/21 05:17:27;;;;;;;12.65;4.97;;;;;;;9.81;100.00;99322.19;5039913;28;20146;-92
2023/03/21 05:19:55;;;;;;;14.85;5.47;;;;;;;9.75;100.00;99319.91;5027854;28;20057;-92
2023/03/21 05:22:25;;;;;;;15.10;6.30;;;;;;;9.68;100.00;99311.63;5042758;28;20127;-92
2023/03/21 05:24:54;;;;;;;13.88;6.03;;;;;;;9.62;100.00;99298.03;5042975;28;20060;-92
2023/03/21 05:27:34;;;;;;;10.90;4.55;;;;;;;9.75;100.00;99303.41;5041060;28;20131;-92
2023/03/21 05:30:10;;;;;;;12.30;5.53;;;;;;;9.47;100.00;99276.22;5041367;28;20067;-92
2023/03/21 05:32:37;;;;;;;12.07;5.40;;;;;;;9.58;100.00;99283.44;5040035;28;20056;-93
2023/03/21 05:35:05;;;;;;;13.68;5.88;;;;;;;9.48;100.00;99275.31;5040000;28;20048;-90
2023/03/21 05:37:31;;;;;;;10.38;4.63;;;;;;;9.80;100.00;99306.59;5039752;28;20564;-92
2023/03/21 05:39:58;;;;;;;12.23;4.30;;;;;;;9.47;100.00;99239.63;5039664;28;20059;-92
2023/03/21 05:42:25;;;;;;;11.05;5.90;;;;;;;9.56;100.00;99251.34;5041290;28;20049;-92
2023/03/21 05:44:52;;;;;;;12.13;4.25;;;;;;;9.73;100.00;99251.22;5044337;28;20490;-92
2023/03/21 05:47:19;;;;;;;10.98;4.38;;;;;;;9.74;100.00;99265.13;5045500;28;20044;-93
2023/03/21 05:49:46;;;;;;;14.82;5.22;;;;;;;9.65;100.00;99250.81;5029442;28;20045;-92
2023/03/21 05:52:12;;;;;;;13.98;5.53;;;;;;;9.66;100.00;99248.09;5025561;28;20064;-92
2023/03/21 05:54:39;;;;;;;17.00;6.43;;;;;;;9.40;100.00;99202.59;5024003;28;20483;-92
2023/03/21 05:57:07;;;;;;;14.43;5.90;;;;;;;9.96;100.00;99275.19;5023125;28;20049;-92
2023/03/21 05:59:34;;;;;;;13.73;6.53;;;;;;;9.48;100.00;99223.88;5020860;28;20052;-91
2023/03/21 06:02:01;;;;;;;13.93;5.70;;;;;;;9.43;100.00;99214.63;5018693;28;20053;-91
2023/03/21 06:04:28;;;;;;;10.75;4.18;;;;;;;9.69;100.00;99234.03;5018457;28;20408;-90
2023/03/21 06:06:56;;;;;;;13.93;4.95;;;;;;;9.77;100.00;99226.56;5019103;28;20133;-91
2023/03/21 06:09:24;;;;;;;13.90;6.13;;;;;;;9.91;100.00;99246.69;5019486;28;20061;-90
2023/03/21 06:11:54;;;;;;;19.55;7.07;;;;;;;9.58;100.00;99239.88;5019302;28;20506;-92
2023/03/21 06:14:22;;;;;;;13.60;6.22;;;;;;;9.65;100.00;99214.22;5019359;28;20053;-92
2023/03/21 06:16:49;;;;;;;15.80;5.70;;;;;;;9.54;100.00;99183.50;5019164;28;20046;-91
2023/03/21 06:19:16;;;;;;;13.13;5.30;;;;;;;9.42;100.00;99171.13;5027221;28;20056;-92
2023/03/21 06:21:43;;;;;;;13.45;5.93;;;;;;;9.63;100.00;99216.94;5018875;28;20050;-92
2023/03/21 06:24:10;;;;;;;13.73;5.10;;;;;;;9.48;100.00;99191.69;5034926;28;20471;-92
2023/03/21 06:26:37;;;;;;;12.75;4.78;;;;;;;9.66;100.00;99229.81;5035162;28;20049;-92
2023/03/21 06:29:04;;;;;;;12.13;4.32;;;;;;;9.89;100.00;99264.25;5018804;28;20054;-92
2023/03/21 06:31:30;;;;;;;15.48;5.38;;;;;;;9.69;100.00;99234.88;5018725;28;20056;-92
2023/03/21 06:33:57;;;;;;;12.18;4.20;;;;;;;9.90;100.00;99260.72;5034370;28;20049;-92
2023/03/21 06:36:24;;;;;;;12.45;4.57;;;;;;;9.81;100.00;99246.41;5036147;28;20499;-93
2023/03/21 06:38:51;;;;;;;10.88;3.78;;;;;;;10.08;100.00;99274.47;5020223;28;20113;-93
2023/03/21 06:41:18;;;;;;;12.55;4.55;;;;;;;9.69;100.00;99231.44;5020106;28;20049;-92
2023/03/21 06:43:45;;;;;;;14.98;3.13;;;;;;;9.81;100.00;99230.72;5029309;28;20103;-92
2023/03/21 06:46:11;;;;;;;10.10;3.17;;;;;;;9.72;100.00;99185.97;5038158;28;20049;-92
2023/03/21 06:48:43;;;;;;;9.95;3.40;;;;;;;10.08;100.00;99246.53;5034826;28;20479;-92
2023/03/21 06:51:11;;;;;;;13.80;3.92;;;;;;;10.04;100.00;99265.97;5037146;28;20056;-92
2023/03/21 06:53:38;;;;;;;10.70;3.50;;;;;;;9.84;100.00;99208.75;5028005;28;20072;-91
2023/03/21 06:56:05;;;;;;;9.38;3.30;;;;;;;10.09;100.00;99252.59;5036041;28;20052;-92
2023/03/21 06:58:32;;;;;;;13.20;2.83;;;;;;;10.02;100.00;99223.38;5036704;28;20467;-92
2023/03/21 07:01:00;;;;;;;7.60;2.53;;;;;;;10.07;100.00;99216.09;5036709;28;20048;-91
2023/03/21 07:03:27;;;;;;;9.77;3.15;;;;;;;10.11;100.00;99222.00;5039326;28;20045;-92
2023/03/21 07:05:54;;;;;;;9.40;2.70;;;;;;;10.13;100.00;99216.66;5052917;28;20474;-92
2023/03/21 07:08:21;;;;;;;11.02;3.22;;;;;;;10.15;100.00;99233.13;5033492;28;20046;-92
2023/03/21 07:10:48;;;;;;;6.80;2.70;;;;;;;10.24;100.00;99243.00;5017087;28;20057;-92
2023/03/21 07:13:15;;;;;;;13.43;3.30;;;;;;;10.34;100.00;99249.41;5016573;28;20053;-91
2023/03/21 07:15:42;;;;;;;9.43;4.03;;;;;;;10.10;100.00;99220.28;5020879;28;20053;-90
2023/03/21 07:18:09;;;;;;;14.55;4.15;;;;;;;10.20;100.00;99208.34;5018588;28;20049;-90
2023/03/21 07:20:36;;;;;;;10.98;3.20;;;;;;;10.19;100.00;99221.53;5021879;28;20062;-91
2023/03/21 07:23:04;;;;;;;7.60;2.80;;;;;;;10.23;100.00;99213.41;5035857;28;20057;-91
2023/03/21 07:25:31;;;;;;;9.20;2.80;;;;;;;10.41;100.00;99224.56;5035673;28;20060;-91
2023/03/21 07:27:58;;;;;;;12.10;2.50;;;;;;;10.16;100.00;99178.06;5035325;28;20048;-91
2023/03/21 07:30:25;;;;;;;9.68;3.50;;;;;;;10.38;100.00;99218.69;5036382;28;20087;-92
2023/03/21 07:32:52;;;;;;;9.02;2.60;;;;;;;10.41;100.00;99226.31;5036135;28;20049;-92
2023/03/21 07:35:19;;;;;;;7.25;2.28;;;;;;;10.70;100.00;99261.19;5036911;28;20065;-90
2023/03/21 07:37:45;;;;;;;11.15;3.08;;;;;;;10.52;100.00;99241.38;5035622;28;20502;-91
2023/03/21 07:40:12;;;;;;;7.97;2.42;;;;;;;10.26;100.00;99176.59;5018865;28;20052;-92
2023/03/21 07:42:40;;;;;;;9.07;2.53;;;;;;;10.71;100.00;99260.25;5020033;28;20048;-92
2023/03/21 07:45:08;;;;;;;7.00;2.50;;;;;;;10.55;100.00;99239.44;5036105;28;20107;-92
2023/03/21 07:47:35;;;;;;;8.13;2.50;;;;;;;10.65;100.00;99244.91;5019620;28;20045;-92
2023/03/21 07:50:03;;;;;;;8.45;2.13;;;;;;;10.42;100.00;99217.53;5030519;28;20055;-92
2023/03/21 07:52:30;;;;;;;10.50;3.13;;;;;;;10.78;100.00;99255.47;5024813;28;20051;-92
2023/03/21 07:54:57;;;;;;;10.45;2.40;;;;;;;10.50;100.00;99217.94;5052614;28;20048;-91
2023/03/21 07:57:24;;;;;;;7.20;2.78;;;;;;;10.51;100.00;99216.97;5041068;28;20427;-92
2023/03/21 07:59:51;;;;;;;9.02;2.58;;;;;;;10.62;100.00;99225.03;5024121;28;20498;-90
2023/03/21 08:02:18;;;;;;;8.40;2.28;;;;;;;10.54;100.00;99229.03;5035917;28;20060;-93
2023/03/21 08:04:45;;;;;;;8.30;2.40;;;;;;;10.41;100.00;99211.47;5035830;28;20053;-91
2023/03/21 08:07:12;;;;;;;5.18;1.90;;;;;;;10.76;100.00;99252.94;5035267;28;20049;-92
2023/03/21 08:09:39;;;;;;;4.68;1.70;;;;;;;10.34;100.00;99178.78;5034387;28;20053;-92
2023/03/21 08:12:09;;;;;;;5.95;2.25;;;;;;;10.59;100.00;99221.75;5035646;28;20384;-92
2023/03/21 08:14:36;;;;;;;6.00;2.00;;;;;;;10.76;100.00;99224.13;5026472;28;20061;-91
2023/03/21 08:17:04;;;;;;;5.53;1.70;;;;;;;11.07;100.00;99244.97;5030338;28;20068;-90
2023/03/21 08:19:31;;;;;;;10.90;2.25;;;;;;;11.40;100.00;99184.28;5045947;28;20045;-91
2023/03/21 08:21:58;;;;;;;8.43;2.50;;;;;;;11.68;100.00;99198.19;5035006;28;20407;-91
2023/03/21 08:24:27;;;;;;;7.32;2.20;;;;;;;12.22;100.00;99203.31;5035448;28;20060;-91
2023/03/21 08:26:53;;;;;;;7.03;2.17;;;;;;;12.59;100.00;99194.63;5028587;28;20046;-90
2023/03/21 08:29:20;;;;;;;20.80;18.83;;;;;;;12.80;100.00;99210.66;5024818;28;20049;-89
2023/03/21 08:31:47;;;;;;;9.15;4.45;;;;;;;12.86;100.00;99200.56;5024630;28;20060;-90
2023/03/21 08:34:14;;;;;;;7.57;2.80;;;;;;;13.07;100.00;99187.69;5033388;28;20453;-89
2023/03/21 08:36:41;;;;;;;5.38;2.40;;;;;;;12.85;100.00;99174.41;5026167;28;20072;-89
2023/03/21 08:39:07;;;;;;;6.07;1.75;;;;;;;13.31;100.00;99178.97;5015676;28;20052;-90
2023/03/21 08:41:36;;;;;;;8.80;1.60;;;;;;;13.83;100.00;99213.72;5037926;28;20056;-90
2023/03/21 08:44:05;;;;;;;3.25;1.13;;;;;;;13.81;100.00;99203.28;5042631;28;20130;-90
2023/03/21 08:46:32;;;;;;;6.10;1.30;;;;;;;13.24;100.00;99164.56;5054832;28;20044;-90
2023/03/21 08:48:59;;;;;;;3.35;1.20;;;;;;;12.77;100.00;99187.28;5035590;28;20129;-90
2023/03/21 08:51:26;;;;;;;3.00;1.20;;;;;;;12.92;100.00;99196.66;5055967;28;20059;-89
2023/03/21 08:53:52;;;;;;;3.72;1.20;;;;;;;12.72;100.00;99180.53;5037915;28;20052;-89
2023/03/21 08:56:19;;;;;;;3.88;1.27;;;;;;;12.80;100.00;99192.28;5037655;28;20049;-89
2023/03/21 08:58:46;;;;;;;3.90;1.30;;;;;;;12.89;100.00;99166.22;5052366;28;20498;-88
2023/03/21 09:01:14;;;;;;;5.47;1.77;;;;;;;13.23;100.00;99147.97;5037605;28;20111;-90
2023/03/21 09:03:42;;;;;;;4.82;1.20;;;;;;;13.85;100.00;99190.75;5037017;28;20126;-89
2023/03/21 09:06:12;;;;;;;3.58;1.40;;;;;;;14.40;100.00;99204.91;5037538;28;20049;-89
2023/03/21 09:08:40;;;;;;;7.03;1.63;;;;;;;14.68;100.00;99205.44;5028230;28;20098;-90
2023/03/21 09:11:09;;;;;;;5.85;1.40;;;;;;;14.35;100.00;99167.56;5037421;28;20409;-88
2023/03/21 09:13:35;;;;;;;5.38;1.60;;;;;;;14.23;100.00;99152.75;5035891;28;20049;-90
2023/03/21 09:16:03;;;;;;;3.83;1.00;;;;;;;14.73;100.00;99187.47;5036630;28;20056;-89
2023/03/21 09:18:47;;;;;;;3.90;1.30;;;;;;;14.58;100.00;99160.53;5032286;28;20046;-90
2023/03/21 09:21:17;;;;;;;6.10;1.40;;;;;;;14.47;100.00;99184.22;5039480;28;20045;-90
2023/03/21 09:23:45;;;;;;;6.53;1.35;;;;;;;14.26;100.00;99189.34;5038032;28;20053;-90
2023/03/21 09:26:12;;;;;;;4.22;1.38;;;;;;;14.06;100.00;99143.53;5023317;28;20463;-90
2023/03/21 09:28:39;;;;;;;3.35;1.00;;;;;;;14.43;100.00;99170.47;5052563;28;20135;-91
2023/03/21 09:31:11;;;;;;;4.97;1.48;;;;;;;14.21;100.00;99160.75;5025687;28;20055;-89
2023/03/21 09:33:41;;;;;;;8.35;3.33;;;;;;;14.49;100.00;99182.28;5026147;28;20642;-90
2023/03/21 09:36:12;;;;;;;6.28;1.60;;;;;;;14.36;100.00;99161.38;5031690;28;20072;-90
2023/03/21 09:38:43;;;;;;;3.75;1.38;;;;;;;13.88;100.00;99129.97;5052945;28;20497;-89
2023/03/21 09:41:16;;;;;;;8.10;2.80;;;;;;;13.40;100.00;99101.22;5035015;28;20041;-90
2023/03/21 09:44:21;;;;;;;4.25;1.48;;;;;;;13.67;100.00;99166.69;5037543;28;20060;-90
2023/03/21 09:46:57;;;;;;;2.72;1.20;;;;;;;13.60;100.00;99160.22;5027341;28;20534;-90
2023/03/21 09:49:31;;;;;;;1.77;1.02;;;;;;;13.82;100.00;99157.59;5034271;28;20052;-89
2023/03/21 09:52:02;;;;;;;3.80;1.48;;;;;;;13.77;100.00;99115.03;5045821;28;20050;-89
2023/03/21 09:54:32;;;;;;;1.48;0.90;;;;;;;13.91;100.00;99149.97;5025872;28;20045;-90
2023/03/21 09:57:23;;;;;;;3.53;1.40;;;;;;;14.19;100.00;99127.63;5027745;28;20064;-89
2023/03/21 09:59:53;;;;;;;4.47;1.15;;;;;;;13.83;100.00;99161.09;5048587;28;20052;-89
2023/03/21 10:02:45;;;;;;;2.08;1.00;;;;;;;13.91;100.00;99137.66;5045883;28;20497;-89
2023/03/21 10:05:25;;;;;;;3.38;1.20;;;;;;;14.10;100.00;99155.50;5050330;28;20053;-90
2023/03/21 10:08:07;;;;;;;4.38;1.50;;;;;;;14.31;100.00;99152.16;5033680;28;20054;-90
2023/03/21 10:10:45;;;;;;;2.97;1.30;;;;;;;13.94;100.00;99121.63;5051771;28;20376;-89
2023/03/21 10:13:34;;;;;;;2.63;1.25;;;;;;;14.16;100.00;99139.22;5036533;28;20402;-90
2023/03/21 10:16:12;;;;;;;4.95;1.63;;;;;;;13.42;100.00;99075.63;5053202;28;20067;-90
2023/03/21 10:18:41;;;;;;;6.30;1.65;;;;;;;13.56;100.00;99127.19;5027979;28;20045;-89
2023/03/21 10:21:15;;;;;;;8.68;2.20;;;;;;;13.88;100.00;99140.50;5036142;28;20053;-89
2023/03/21 10:24:02;;;;;;;;;;;;;;;13.96;100.00;99135.50;5039187;28;20053;-89
2023/03/21 10:26:29;;;;;;;2.75;1.15;;;;;;;13.47;100.00;99082.25;5035901;28;20339;-89
2023/03/21 10:29:02;;;;;;;3.13;1.20;;;;;;;13.85;100.00;99133.69;5031200;28;20036;-89
2023/03/21 10:31:29;;;;;;;6.10;1.65;;;;;;;14.05;100.00;99139.22;5020644;28;20479;-88
2023/03/21 10:34:01;;;;;;;3.72;1.65;;;;;;;13.75;100.00;99089.81;5036274;28;20438;-89
2023/03/21 10:36:31;;;;;;;3.50;1.20;;;;;;;13.99;100.00;99116.03;5053726;28;20437;-89
2023/03/21 10:39:03;;;;;;;2.75;1.20;;;;;;;13.66;100.00;99118.47;5044372;28;20052;-89
2023/03/21 10:41:31;;;;;;;3.77;1.60;;;;;;;13.71;100.00;99118.13;5032102;28;20510;-89
2023/03/21 10:44:10;;;;;;;4.15;1.48;;;;;;;13.81;100.00;99124.38;5035941;28;20056;-90
2023/03/21 10:46:37;;;;;;;3.65;1.60;;;;;;;13.77;100.00;99070.31;5035398;28;20056;-89
2023/03/21 10:49:06;;;;;;;11.30;5.72;;;;;;;13.85;100.00;99075.81;5048628;28;20598;-89
2023/03/21 10:51:36;;;;;;;8.02;3.10;;;;;;;14.03;100.00;99086.69;5026266;28;20052;-89
2023/03/21 10:54:12;;;;;;;2.25;1.10;;;;;;;14.20;100.00;99100.31;5034948;28;20057;-89
2023/03/21 10:56:52;;;;;;;2.95;1.40;;;;;;;14.13;100.00;99107.88;5052990;28;20406;-89
2023/03/21 10:59:22;;;;;;;4.78;1.38;;;;;;;13.90;100.00;99080.75;5034920;28;20045;-90
2023/03/21 11:01:51;;;;;;;2.75;1.15;;;;;;;13.41;100.00;99066.94;5051110;28;20499;-89
2023/03/21 11:04:26;;;;;;;2.67;0.98;;;;;;;14.33;100.00;99124.75;5032876;28;20057;-89
2023/03/21 11:06:56;;;;;;;5.43;1.50;;;;;;;13.87;100.00;99052.03;5038832;28;20056;-89
2023/03/21 11:09:26;;;;;;;5.25;1.45;;;;;;;13.86;100.00;99081.91;5021680;28;20042;-88
2023/03/21 11:12:09;;;;;;;7.68;2.85;;;;;;;14.27;100.00;99106.81;5032326;28;20052;-89
2023/03/21 11:14:40;;;;;;;7.37;2.50;;;;;;;14.11;100.00;99067.69;5035232;28;20110;-89
2023/03/21 11:17:22;;;;;;;5.38;1.88;;;;;;;14.11;100.00;99044.00;5049786;28;20359;-90
2023/03/21 11:19:57;;;;;;;5.30;1.63;;;;;;;14.19;100.00;99093.41;5029485;28;20044;-90
2023/03/21 11:22:29;;;;;;;6.60;1.80;;;;;;;14.39;100.00;99083.91;5050187;28;20467;-90
2023/03/21 11:24:59;;;;;;;7.60;1.60;;;;;;;14.08;100.00;99074.97;5025850;28;20053;-90
2023/03/21 11:27:29;;;;;;;6.88;1.70;;;;;;;14.01;100.00;99059.69;5034654;28;20478;-89
2023/03/21 11:29:58;;;;;;;8.07;1.73;;;;;;;14.34;100.00;99089.56;5023572;28;20053;-90
2023/03/21 11:32:37;;;;;;;4.22;1.50;;;;;;;14.26;100.00;99088.50;5030388;28;20064;-89
2023/03/21 11:35:17;;;;;;;10.82;2.03;;;;;;;14.12;100.00;99063.25;5026199;28;20136;-90
2023/03/21 11:37:52;;;;;;;8.13;1.73;;;;;;;14.02;100.00;99048.22;5036646;28;20072;-90
2023/03/21 11:40:18;;;;;;;6.93;1.58;;;;;;;14.40;100.00;99040.84;5033249;28;20048;-90
2023/03/21 11:42:51;;;;;;;4.70;1.20;;;;;;;14.71;100.00;99028.66;5032699;28;20053;-90
2023/03/21 11:45:22;;;;;;;9.02;1.20;;;;;;;14.88;100.00;99060.72;5052828;28;20045;-90
2023/03/21 11:47:52;;;;;;;6.43;1.40;;;;;;;15.07;100.00;99045.06;5035065;28;20056;-90